Time;durP1;ratioP1;P1;durP2;ratioP2;P2;SDS_P1;SDS_P2;PMS_P1;PMS_P2;Temp;Humidity;BMP_temperature;BMP_pressure;BME280_temperature;BME280_humidity;BME280_pressure;Samples;Min_cycle;Max_cycle;Signal;HPM_P1;HPM_P2
2022/03/08 00:00:55;;;;;;;3.60;1.63;;;19.80;43.00;;;;;;5076097;28;20119;-59
2022/03/08 00:03:21;;;;;;;3.22;1.77;;;19.90;43.10;;;;;;5075028;28;20039;-59
2022/03/08 00:05:46;;;;;;;3.22;1.58;;;19.80;43.00;;;;;;5075474;28;20581;-59
2022/03/08 00:08:12;;;;;;;2.90;1.55;;;19.80;42.90;;;;;;5074638;28;20110;-59
2022/03/08 00:10:38;;;;;;;3.75;1.67;;;19.80;42.90;;;;;;5076035;28;20554;-61
2022/03/08 00:13:04;;;;;;;2.90;1.42;;;19.70;42.80;;;;;;5075231;28;20094;-59
2022/03/08 00:15:29;;;;;;;2.95;1.40;;;19.70;43.40;;;;;;5075104;28;20079;-59
2022/03/08 00:17:55;;;;;;;3.50;1.27;;;19.80;42.70;;;;;;5075761;28;20041;-60
2022/03/08 00:20:20;;;;;;;3.97;1.52;;;19.70;42.60;;;;;;5075012;28;20040;-60
2022/03/08 00:22:46;;;;;;;3.08;1.40;;;19.70;42.60;;;;;;5074777;28;20102;-59
2022/03/08 00:25:12;;;;;;;3.60;1.70;;;19.70;42.50;;;;;;5074153;28;20098;-60
2022/03/08 00:27:37;;;;;;;3.10;1.48;;;19.70;42.50;;;;;;5075364;28;20098;-60
2022/03/08 00:30:05;;;;;;;2.90;1.38;;;19.70;42.50;;;;;;5074720;28;20041;-59
2022/03/08 00:32:30;;;;;;;4.10;1.92;;;19.70;42.60;;;;;;5074633;28;20510;-59
2022/03/08 00:34:56;;;;;;;3.53;1.50;;;19.70;42.60;;;;;;5075038;28;20044;-60
2022/03/08 00:37:21;;;;;;;3.10;1.50;;;19.70;42.60;;;;;;5074477;28;20040;-59
2022/03/08 00:39:47;;;;;;;3.40;1.33;;;19.60;42.40;;;;;;5075113;28;20049;-60
2022/03/08 00:42:12;;;;;;;3.28;1.50;;;19.60;42.40;;;;;;5075181;28;20075;-59
2022/03/08 00:44:39;;;;;;;3.42;1.55;;;19.60;42.40;;;;;;5074193;28;20119;-60
2022/03/08 00:47:05;;;;;;;3.03;1.42;;;19.60;43.10;;;;;;5074854;28;20094;-59
2022/03/08 00:49:31;;;;;;;3.22;1.50;;;19.60;42.40;;;;;;5075322;28;20044;-60
2022/03/08 00:51:56;;;;;;;2.95;1.40;;;19.60;42.40;;;;;;5074468;28;20048;-59
2022/03/08 00:54:22;;;;;;;3.00;1.50;;;19.60;42.40;;;;;;5074747;28;20045;-59
2022/03/08 00:56:47;;;;;;;2.25;1.27;;;19.60;42.40;;;;;;5074896;28;20507;-59
2022/03/08 00:59:13;;;;;;;3.80;1.52;;;19.60;42.30;;;;;;5073834;28;20048;-60
2022/03/08 01:01:38;;;;;;;3.95;1.83;;;19.60;42.30;;;;;;5073753;28;20051;-59
2022/03/08 01:04:04;;;;;;;2.60;1.42;;;19.60;42.30;;;;;;5074330;28;20404;-60
2022/03/08 01:06:30;;;;;;;2.38;1.33;;;19.50;42.90;;;;;;5073549;28;20094;-59
2022/03/08 01:08:55;;;;;;;2.53;1.33;;;19.50;42.20;;;;;;5073857;28;20141;-59
2022/03/08 01:11:21;;;;;;;2.72;1.38;;;19.50;42.10;;;;;;5074186;28;20467;-59
2022/03/08 01:13:46;;;;;;;2.63;1.50;;;19.50;42.10;;;;;;5073883;28;20547;-60
2022/03/08 01:16:12;;;;;;;3.50;1.73;;;19.50;42.00;;;;;;5074565;28;20042;-59
2022/03/08 01:18:37;;;;;;;3.28;1.70;;;19.50;42.10;;;;;;5073650;28;20492;-60
2022/03/08 01:21:03;;;;;;;2.55;1.27;;;19.50;42.10;;;;;;5074314;28;20071;-59
2022/03/08 01:23:28;;;;;;;2.50;1.20;;;19.50;42.00;;;;;;5074727;28;20439;-59
2022/03/08 01:25:54;;;;;;;3.15;1.55;;;19.50;42.00;;;;;;5072233;28;20044;-59
2022/03/08 01:28:19;;;;;;;4.22;1.52;;;19.50;42.00;;;;;;5074191;28;20036;-59
2022/03/08 01:30:46;;;;;;;2.70;1.30;;;19.50;42.10;;;;;;5074144;28;20441;-60
2022/03/08 01:33:11;;;;;;;2.63;1.40;;;19.60;42.10;;;;;;5073353;28;20041;-59
2022/03/08 01:35:37;;;;;;;3.28;1.40;;;19.50;42.00;;;;;;5074390;28;20105;-59
2022/03/08 01:38:02;;;;;;;2.55;1.40;;;19.50;41.90;;;;;;5074349;28;20040;-59
2022/03/08 01:40:28;;;;;;;2.47;1.50;;;19.50;41.90;;;;;;5073041;28;20044;-60
2022/03/08 01:42:54;;;;;;;3.55;1.42;;;19.50;41.90;;;;;;5074136;28;20040;-59
2022/03/08 01:45:21;;;;;;;1.95;1.10;;;19.50;41.90;;;;;;5072217;28;20044;-59
2022/03/08 01:47:47;;;;;;;2.77;1.33;;;19.60;41.90;;;;;;5073366;28;20129;-60
2022/03/08 01:50:13;;;;;;;2.08;1.45;;;19.50;41.90;;;;;;5073305;28;20033;-59
2022/03/08 01:52:39;;;;;;;3.35;1.52;;;19.60;42.60;;;;;;5073655;28;20105;-60
2022/03/08 01:55:05;;;;;;;2.60;1.45;;;19.50;41.80;;;;;;5072390;28;20060;-60
2022/03/08 01:57:31;;;;;;;2.38;1.35;;;19.50;41.80;;;;;;5073895;28;20044;-59
2022/03/08 01:59:56;;;;;;;5.40;2.08;;;19.50;41.70;;;;;;5072740;28;20098;-60
2022/03/08 02:02:22;;;;;;;2.75;1.60;;;19.60;42.00;;;;;;5072703;28;20451;-60
2022/03/08 02:04:47;;;;;;;3.20;1.48;;;19.50;41.80;;;;;;5073082;28;20064;-59
2022/03/08 02:07:13;;;;;;;3.28;1.48;;;19.50;41.70;;;;;;5073397;28;20051;-59
2022/03/08 02:09:38;;;;;;;2.70;1.30;;;19.60;41.70;;;;;;5073007;28;20075;-60
2022/03/08 02:12:05;;;;;;;2.55;1.25;;;19.60;41.70;;;;;;5073112;28;20128;-59
2022/03/08 02:14:30;;;;;;;2.80;1.65;;;19.60;41.80;;;;;;5073278;28;20090;-59
2022/03/08 02:16:56;;;;;;;2.42;1.30;;;19.60;41.70;;;;;;5071656;28;20044;-60
2022/03/08 02:19:21;;;;;;;2.95;1.63;;;19.60;41.70;;;;;;5073035;28;20097;-59
2022/03/08 02:21:49;;;;;;;1.63;1.02;;;19.60;41.70;;;;;;5072835;28;20044;-59
2022/03/08 02:24:15;;;;;;;1.90;1.20;;;19.60;41.60;;;;;;5073206;28;20045;-59
2022/03/08 02:26:40;;;;;;;3.80;1.80;;;19.70;41.60;;;;;;5073092;28;20325;-60
2022/03/08 02:29:08;;;;;;;2.22;1.38;;;19.70;41.70;;;;;;5072104;28;20127;-60
2022/03/08 02:31:34;;;;;;;2.67;1.42;;;19.70;41.60;;;;;;5073292;28;20125;-60
2022/03/08 02:33:59;;;;;;;3.03;1.52;;;19.70;41.60;;;;;;5073368;28;20094;-60
2022/03/08 02:36:25;;;;;;;2.15;1.33;;;19.70;41.60;;;;;;5071945;28;20047;-60
2022/03/08 02:38:50;;;;;;;2.42;1.38;;;19.70;41.60;;;;;;5073259;28;20052;-59
2022/03/08 02:41:16;;;;;;;3.00;1.50;;;19.70;41.60;;;;;;5072791;28;20040;-59
2022/03/08 02:43:41;;;;;;;3.85;1.50;;;19.70;41.60;;;;;;5072347;28;20037;-59
2022/03/08 02:46:07;;;;;;;3.53;1.30;;;19.70;41.50;;;;;;5072591;28;20052;-59
2022/03/08 02:48:32;;;;;;;2.38;1.33;;;19.70;41.40;;;;;;5073136;28;20048;-59
2022/03/08 02:50:58;;;;;;;2.33;1.30;;;19.70;41.40;;;;;;5072140;28;20048;-59
2022/03/08 02:53:24;;;;;;;2.42;1.40;;;19.80;41.50;;;;;;5072715;28;20120;-59
2022/03/08 02:55:49;;;;;;;3.60;1.63;;;19.80;41.50;;;;;;5072474;28;20044;-59
2022/03/08 02:58:15;;;;;;;3.25;1.23;;;19.80;41.50;;;;;;5072020;28;20491;-60
2022/03/08 03:00:40;;;;;;;3.08;1.70;;;19.70;41.30;;;;;;5072828;28;20453;-59
2022/03/08 03:03:06;;;;;;;2.95;1.45;;;19.80;41.50;;;;;;5070973;28;20033;-59
2022/03/08 03:05:32;;;;;;;3.35;1.40;;;19.80;41.50;;;;;;5071352;28;20048;-59
2022/03/08 03:07:58;;;;;;;2.30;1.40;;;19.80;41.40;;;;;;5072747;28;20047;-60
2022/03/08 03:10:24;;;;;;;2.55;1.38;;;19.80;41.50;;;;;;5071876;28;20044;-59
2022/03/08 03:12:51;;;;;;;1.75;1.10;;;19.80;41.50;;;;;;5071209;28;20439;-59
2022/03/08 03:15:16;;;;;;;2.55;1.30;;;19.80;41.40;;;;;;5072208;28;20033;-59
2022/03/08 03:17:42;;;;;;;4.53;1.50;;;19.80;41.40;;;;;;5072480;28;20071;-59
2022/03/08 03:20:09;;;;;;;2.85;1.23;;;19.80;41.40;;;;;;5070394;28;20098;-59
2022/03/08 03:22:35;;;;;;;4.20;1.40;;;19.80;41.40;;;;;;5072801;28;20048;-60
2022/03/08 03:25:00;;;;;;;2.47;1.33;;;19.90;41.40;;;;;;5072325;28;20051;-59
2022/03/08 03:27:26;;;;;;;2.70;1.50;;;19.80;41.40;;;;;;5071700;28;20045;-59
2022/03/08 03:29:52;;;;;;;2.25;1.38;;;19.90;41.40;;;;;;5072376;28;20045;-59
2022/03/08 03:32:19;;;;;;;3.70;1.48;;;19.90;41.40;;;;;;5071665;28;20048;-60
2022/03/08 03:34:45;;;;;;;2.83;1.33;;;19.80;41.40;;;;;;5072738;28;20115;-59
2022/03/08 03:37:10;;;;;;;2.50;1.33;;;19.90;41.30;;;;;;5072413;28;20055;-59
2022/03/08 03:39:36;;;;;;;2.30;1.27;;;19.90;41.40;;;;;;5071829;28;20037;-59
2022/03/08 03:42:01;;;;;;;2.83;1.50;;;19.90;42.10;;;;;;5072573;28;20483;-59
2022/03/08 03:44:27;;;;;;;2.60;1.30;;;19.80;41.40;;;;;;5072195;28;20111;-59
2022/03/08 03:46:52;;;;;;;3.05;1.38;;;19.90;41.40;;;;;;5071743;28;20365;-60
2022/03/08 03:49:18;;;;;;;2.67;1.20;;;19.90;41.40;;;;;;5072093;28;20511;-59
2022/03/08 03:51:46;;;;;;;3.10;1.33;;;19.90;41.40;;;;;;5072563;28;20040;-60
2022/03/08 03:54:11;;;;;;;2.28;1.30;;;19.90;42.00;;;;;;5071231;28;20444;-60
2022/03/08 03:56:36;;;;;;;2.03;1.10;;;19.90;41.30;;;;;;5072554;28;20131;-59
2022/03/08 03:59:02;;;;;;;2.53;1.30;;;19.90;41.30;;;;;;5071815;28;20049;-59
2022/03/08 04:01:27;;;;;;;2.72;1.38;;;19.90;41.20;;;;;;5071407;28;20044;-60
2022/03/08 04:03:53;;;;;;;2.60;1.40;;;19.90;41.20;;;;;;5072389;28;20055;-59
2022/03/08 04:06:19;;;;;;;2.50;1.65;;;19.90;41.20;;;;;;5071663;28;20060;-60
2022/03/08 04:08:45;;;;;;;3.13;1.15;;;19.90;41.30;;;;;;5073341;28;20076;-60
2022/03/08 04:11:10;;;;;;;3.97;1.60;;;19.90;41.30;;;;;;5075820;28;20067;-59
2022/03/08 04:13:36;;;;;;;2.30;1.50;;;19.90;41.20;;;;;;5075835;28;20215;-60
2022/03/08 04:16:01;;;;;;;2.00;1.02;;;19.90;41.20;;;;;;5075208;28;20076;-60
2022/03/08 04:18:27;;;;;;;2.88;1.30;;;19.90;41.30;;;;;;5075359;28;20052;-59
2022/03/08 04:20:52;;;;;;;3.10;1.40;;;19.90;41.20;;;;;;5074420;28;20047;-60
2022/03/08 04:23:18;;;;;;;2.15;1.23;;;20.00;41.30;;;;;;5074445;28;20048;-59
2022/03/08 04:25:43;;;;;;;2.47;1.20;;;19.90;41.20;;;;;;5075882;28;20048;-59
2022/03/08 04:28:09;;;;;;;1.75;1.00;;;19.90;41.20;;;;;;5075073;28;20044;-59
2022/03/08 04:30:35;;;;;;;2.58;1.27;;;20.00;41.20;;;;;;5074537;28;20040;-59
2022/03/08 04:33:00;;;;;;;2.25;1.25;;;20.00;41.30;;;;;;5075668;28;20041;-60
2022/03/08 04:35:26;;;;;;;2.72;1.25;;;19.90;41.20;;;;;;5074255;28;20119;-59
2022/03/08 04:37:51;;;;;;;2.88;1.15;;;20.00;41.30;;;;;;5075312;28;20115;-60
2022/03/08 04:40:17;;;;;;;2.78;1.30;;;20.00;41.20;;;;;;5074731;28;20198;-60
2022/03/08 04:42:42;;;;;;;2.47;1.38;;;20.00;41.30;;;;;;5074334;28;20040;-59
2022/03/08 04:45:08;;;;;;;1.65;1.13;;;20.00;41.20;;;;;;5074971;28;20044;-59
2022/03/08 04:47:35;;;;;;;2.38;1.25;;;20.00;41.30;;;;;;5075447;28;20557;-59
2022/03/08 04:50:02;;;;;;;2.78;1.55;;;20.00;41.30;;;;;;5074377;28;20170;-59
2022/03/08 04:52:28;;;;;;;2.10;1.23;;;20.00;41.30;;;;;;5075064;28;20115;-59
2022/03/08 04:54:53;;;;;;;2.85;1.40;;;20.00;41.30;;;;;;5075158;28;20508;-60
2022/03/08 04:57:19;;;;;;;2.70;1.40;;;20.00;41.20;;;;;;5074176;28;20040;-59
2022/03/08 04:59:44;;;;;;;2.80;1.38;;;20.00;41.10;;;;;;5074932;28;20048;-59
2022/03/08 05:02:10;;;;;;;2.42;1.30;;;20.00;41.20;;;;;;5063818;28;20105;-59
2022/03/08 05:04:35;;;;;;;2.92;1.17;;;20.00;41.20;;;;;;5071014;28;20044;-60
2022/03/08 05:07:01;;;;;;;3.13;1.52;;;20.00;41.20;;;;;;5074208;28;20484;-59
2022/03/08 05:09:26;;;;;;;3.35;1.40;;;20.00;41.20;;;;;;5074101;28;20080;-60
2022/03/08 05:11:52;;;;;;;3.40;1.58;;;20.00;41.20;;;;;;5073827;28;20037;-59
2022/03/08 05:14:17;;;;;;;2.38;1.45;;;20.00;41.20;;;;;;5074473;28;20087;-59
2022/03/08 05:16:43;;;;;;;2.17;1.30;;;20.00;41.10;;;;;;5074827;28;20047;-60
2022/03/08 05:19:08;;;;;;;2.33;1.30;;;20.00;41.10;;;;;;5073586;28;20119;-59
2022/03/08 05:21:34;;;;;;;2.72;1.38;;;20.00;41.10;;;;;;5074832;28;20490;-59
2022/03/08 05:23:59;;;;;;;2.85;1.35;;;20.00;41.10;;;;;;5073191;28;20460;-60
2022/03/08 05:26:25;;;;;;;3.35;1.33;;;20.10;41.20;;;;;;5073649;28;20052;-60
2022/03/08 05:28:50;;;;;;;2.38;1.30;;;20.00;41.10;;;;;;5074435;28;20090;-59
2022/03/08 05:31:16;;;;;;;1.92;1.13;;;20.10;41.10;;;;;;5074377;28;20094;-59
2022/03/08 05:33:41;;;;;;;2.33;1.40;;;20.10;41.10;;;;;;5073727;28;20040;-60
2022/03/08 05:36:07;;;;;;;2.95;1.30;;;20.00;41.00;;;;;;5073889;28;20044;-59
2022/03/08 05:38:32;;;;;;;2.60;1.40;;;20.00;41.00;;;;;;5074328;28;20083;-60
2022/03/08 05:40:59;;;;;;;3.22;1.60;;;20.00;41.00;;;;;;5073672;28;20147;-59
2022/03/08 05:43:25;;;;;;;3.65;1.40;;;20.10;41.10;;;;;;5073832;28;20040;-59
2022/03/08 05:45:51;;;;;;;2.25;1.30;;;20.10;41.10;;;;;;5073470;28;20460;-59
2022/03/08 05:48:16;;;;;;;3.10;1.67;;;20.10;41.00;;;;;;5073960;28;20437;-59
2022/03/08 05:50:42;;;;;;;2.47;1.60;;;20.10;41.00;;;;;;5074171;28;20057;-59
2022/03/08 05:53:07;;;;;;;1.95;1.20;;;20.10;41.00;;;;;;5071509;28;20036;-59
2022/03/08 05:55:33;;;;;;;2.63;1.42;;;20.10;41.00;;;;;;5073987;28;20495;-59
2022/03/08 05:57:58;;;;;;;2.80;1.63;;;20.10;41.00;;;;;;5073373;28;20135;-59
2022/03/08 06:00:24;;;;;;;3.65;1.60;;;20.10;41.00;;;;;;5072451;28;20080;-59
2022/03/08 06:02:49;;;;;;;3.50;1.40;;;20.10;41.00;;;;;;5073328;28;20037;-60
2022/03/08 06:05:15;;;;;;;2.45;1.38;;;20.10;41.10;;;;;;5073014;28;20095;-59
2022/03/08 06:07:40;;;;;;;3.17;1.58;;;20.10;41.00;;;;;;5072712;28;20102;-59
2022/03/08 06:10:08;;;;;;;3.70;1.45;;;20.10;41.00;;;;;;5073398;28;20392;-60
2022/03/08 06:12:34;;;;;;;4.37;1.70;;;20.10;40.90;;;;;;5073524;28;20041;-59
2022/03/08 06:14:59;;;;;;;2.55;1.40;;;20.10;40.90;;;;;;5072853;28;20377;-59
2022/03/08 06:17:25;;;;;;;4.97;1.67;;;20.10;40.90;;;;;;5073403;28;20123;-59
2022/03/08 06:19:51;;;;;;;2.63;1.60;;;20.10;40.90;;;;;;5073555;28;20036;-59
2022/03/08 06:22:17;;;;;;;3.25;1.50;;;20.10;41.00;;;;;;5072534;28;20045;-59
2022/03/08 06:24:42;;;;;;;3.00;1.55;;;20.10;41.10;;;;;;5071989;28;20051;-59
2022/03/08 06:27:08;;;;;;;4.97;1.60;;;20.10;41.30;;;;;;5073038;28;20052;-59
2022/03/08 06:29:33;;;;;;;4.05;1.60;;;20.10;41.30;;;;;;5072488;28;20101;-60
2022/03/08 06:31:59;;;;;;;4.97;1.75;;;20.10;41.30;;;;;;5072367;28;20044;-59
2022/03/08 06:34:24;;;;;;;3.63;1.75;;;20.10;41.50;;;;;;5073098;28;20055;-60
2022/03/08 06:36:50;;;;;;;2.65;1.50;;;20.10;41.50;;;;;;5072466;28;20127;-60
2022/03/08 06:39:15;;;;;;;3.33;1.63;;;20.20;41.50;;;;;;5072717;28;20086;-59
2022/03/08 06:41:41;;;;;;;3.63;1.63;;;20.10;41.50;;;;;;5072843;28;20083;-61
2022/03/08 06:44:06;;;;;;;5.22;1.70;;;20.20;41.50;;;;;;5071915;28;20071;-60
2022/03/08 06:46:32;;;;;;;4.43;1.58;;;20.10;41.60;;;;;;5073077;28;20048;-60
2022/03/08 06:48:57;;;;;;;5.53;1.73;;;20.20;41.80;;;;;;5072890;28;20067;-60
2022/03/08 06:51:23;;;;;;;2.65;1.33;;;20.20;41.90;;;;;;5072073;28;20052;-60
2022/03/08 06:53:48;;;;;;;3.65;1.70;;;20.20;42.00;;;;;;5072709;28;20469;-60
2022/03/08 06:56:14;;;;;;;3.03;1.63;;;20.20;42.10;;;;;;5071720;28;20051;-59
2022/03/08 06:58:40;;;;;;;2.17;1.42;;;20.20;42.10;;;;;;5072703;28;20036;-60
2022/03/08 07:01:05;;;;;;;3.55;1.58;;;20.20;42.10;;;;;;5072647;28;20418;-60
2022/03/08 07:03:31;;;;;;;3.35;1.73;;;20.20;42.00;;;;;;5072165;28;20032;-61
2022/03/08 07:05:57;;;;;;;5.00;1.98;;;20.20;41.80;;;;;;5072440;28;20058;-59
2022/03/08 07:08:22;;;;;;;2.83;1.70;;;20.20;41.60;;;;;;5090964;28;20480;-58
2022/03/08 07:10:50;;;;;;;3.22;1.70;;;20.20;41.60;;;;;;5092108;28;20044;-59
2022/03/08 07:13:15;;;;;;;3.15;1.88;;;20.20;41.70;;;;;;5092766;28;20146;-59
2022/03/08 07:15:41;;;;;;;5.65;1.88;;;20.20;41.70;;;;;;5093076;28;20123;-60
2022/03/08 07:18:06;;;;;;;4.18;1.65;;;20.20;41.70;;;;;;5092145;28;20042;-59
2022/03/08 07:20:32;;;;;;;3.45;1.63;;;20.30;41.90;;;;;;5093044;28;20058;-59
2022/03/08 07:22:57;;;;;;;3.67;1.50;;;20.20;41.90;;;;;;5093129;28;20120;-59
2022/03/08 07:25:23;;;;;;;2.97;1.58;;;20.30;41.90;;;;;;5091658;28;20086;-59
2022/03/08 07:27:48;;;;;;;3.53;1.50;;;20.30;42.00;;;;;;5092820;28;20509;-59
2022/03/08 07:30:14;;;;;;;3.08;1.52;;;20.30;42.00;;;;;;5092614;28;20044;-59
2022/03/08 07:32:39;;;;;;;2.60;1.48;;;20.30;42.00;;;;;;5092076;28;20571;-60
2022/03/08 07:35:06;;;;;;;4.10;1.58;;;20.30;42.00;;;;;;5092628;28;20048;-59
2022/03/08 07:37:35;;;;;;;5.40;1.50;;;20.30;42.00;;;;;;5092708;28;20040;-59
2022/03/08 07:40:01;;;;;;;3.03;1.58;;;20.40;42.00;;;;;;5091878;28;20062;-58
2022/03/08 07:42:27;;;;;;;4.13;1.70;;;20.40;42.20;;;;;;5093717;28;20075;-58
2022/03/08 07:44:53;;;;;;;3.85;1.38;;;20.40;42.30;;;;;;5096357;28;20440;-58
2022/03/08 07:47:19;;;;;;;2.88;1.63;;;20.40;42.30;;;;;;5095621;28;20044;-59
2022/03/08 07:49:44;;;;;;;4.53;1.35;;;20.40;42.30;;;;;;5096773;28;20036;-59
2022/03/08 07:52:10;;;;;;;2.80;1.55;;;20.50;42.40;;;;;;5096404;28;20044;-59
2022/03/08 07:54:35;;;;;;;2.80;1.35;;;20.50;42.30;;;;;;5094243;28;20070;-58
2022/03/08 07:57:01;;;;;;;5.35;1.52;;;20.50;42.40;;;;;;5096260;28;20085;-58
2022/03/08 07:59:26;;;;;;;2.15;1.40;;;20.50;42.40;;;;;;5094135;28;20048;-59
2022/03/08 08:01:52;;;;;;;2.42;1.40;;;20.50;42.50;;;;;;5082217;28;20083;-59
2022/03/08 08:04:17;;;;;;;2.80;1.10;;;20.60;42.70;;;;;;5075858;28;20080;-59
2022/03/08 08:06:43;;;;;;;2.25;1.30;;;20.60;42.80;;;;;;5074796;28;20056;-59
2022/03/08 08:09:08;;;;;;;2.58;1.38;;;20.60;42.90;;;;;;5075512;28;20086;-59
2022/03/08 08:11:34;;;;;;;2.50;1.30;;;20.60;43.00;;;;;;5076047;28;20048;-59
2022/03/08 08:13:59;;;;;;;3.78;1.40;;;20.60;43.00;;;;;;5074729;28;20037;-59
2022/03/08 08:16:25;;;;;;;4.05;1.33;;;20.70;43.10;;;;;;5075554;28;20055;-59
2022/03/08 08:18:50;;;;;;;4.03;1.20;;;20.70;43.10;;;;;;5075999;28;20048;-59
2022/03/08 08:21:16;;;;;;;2.03;1.33;;;20.70;43.10;;;;;;5074548;28;20045;-59
2022/03/08 08:23:41;;;;;;;3.28;1.48;;;20.80;43.20;;;;;;5075330;28;20454;-60
2022/03/08 08:26:07;;;;;;;2.13;1.30;;;20.80;43.20;;;;;;5075263;28;20040;-60
2022/03/08 08:28:32;;;;;;;4.75;1.40;;;20.80;43.20;;;;;;5074733;28;20087;-59
2022/03/08 08:30:58;;;;;;;2.33;1.45;;;20.80;43.10;;;;;;5075580;28;20037;-59
2022/03/08 08:33:24;;;;;;;2.40;1.30;;;20.80;43.10;;;;;;5075268;28;20500;-59
2022/03/08 08:35:50;;;;;;;4.03;1.30;;;20.90;43.10;;;;;;5074621;28;20143;-59
2022/03/08 08:38:15;;;;;;;4.15;1.25;;;20.90;43.10;;;;;;5074966;28;20072;-59
2022/03/08 08:40:40;;;;;;;4.05;1.60;;;20.90;43.00;;;;;;5074187;28;20048;-60
2022/03/08 08:43:06;;;;;;;5.82;1.85;;;20.90;43.00;;;;;;5074207;28;20412;-58
2022/03/08 08:45:33;;;;;;;3.15;1.33;;;20.90;43.00;;;;;;5075065;28;20075;-59
2022/03/08 08:47:58;;;;;;;2.05;1.30;;;21.00;43.20;;;;;;5075345;28;20119;-59
2022/03/08 08:50:24;;;;;;;3.08;1.30;;;21.00;43.40;;;;;;5074342;28;20140;-59
2022/03/08 08:52:49;;;;;;;2.70;1.38;;;21.00;43.50;;;;;;5074506;28;20072;-58
2022/03/08 08:55:15;;;;;;;2.25;1.30;;;21.00;43.50;;;;;;5073708;28;20123;-59
2022/03/08 08:57:40;;;;;;;3.42;1.48;;;21.00;43.60;;;;;;5088610;28;20044;-59
2022/03/08 09:00:07;;;;;;;2.42;1.20;;;21.00;43.60;;;;;;5094856;28;20044;-60
2022/03/08 09:02:32;;;;;;;3.05;1.10;;;21.00;43.50;;;;;;5094169;28;20040;-59
2022/03/08 09:04:58;;;;;;;2.38;1.20;;;21.10;43.60;;;;;;5094085;28;20101;-59
2022/03/08 09:07:23;;;;;;;3.97;1.25;;;21.00;43.60;;;;;;5094608;28;20609;-59
2022/03/08 09:09:49;;;;;;;2.85;1.35;;;21.10;43.70;;;;;;5094367;28;20051;-59
2022/03/08 09:12:15;;;;;;;2.42;1.23;;;21.00;43.60;;;;;;5094550;28;20044;-59
2022/03/08 09:14:40;;;;;;;2.35;1.30;;;21.10;43.60;;;;;;5094912;28;20047;-60
2022/03/08 09:17:06;;;;;;;4.88;1.48;;;21.10;44.40;;;;;;5086613;28;20064;-58
2022/03/08 09:19:31;;;;;;;4.68;1.30;;;21.00;43.70;;;;;;5074314;28;20123;-59
2022/03/08 09:21:57;;;;;;;3.50;1.38;;;21.10;43.70;;;;;;5074140;28;20040;-58
2022/03/08 09:24:22;;;;;;;2.92;1.30;;;21.10;43.70;;;;;;5073367;28;20555;-59
2022/03/08 09:26:48;;;;;;;4.80;1.40;;;21.10;43.60;;;;;;5073937;28;20040;-59
2022/03/08 09:29:13;;;;;;;3.65;1.15;;;21.10;43.50;;;;;;5074209;28;20043;-59
2022/03/08 09:31:39;;;;;;;3.00;1.40;;;21.10;43.50;;;;;;5072107;28;20044;-59
2022/03/08 09:34:04;;;;;;;3.15;1.50;;;21.10;43.50;;;;;;5073408;28;20377;-59
2022/03/08 09:36:30;;;;;;;3.22;1.23;;;21.10;43.60;;;;;;5073890;28;20040;-59
2022/03/08 09:38:56;;;;;;;2.88;0.98;;;21.10;43.60;;;;;;5073147;28;20480;-59
2022/03/08 09:41:21;;;;;;;3.53;1.27;;;21.10;43.70;;;;;;5072470;28;20044;-59
2022/03/08 09:43:47;;;;;;;3.45;1.58;;;21.10;43.70;;;;;;5073044;28;20036;-59
2022/03/08 09:46:12;;;;;;;3.25;1.45;;;21.10;43.70;;;;;;5072856;28;20036;-59
2022/03/08 09:48:38;;;;;;;2.35;1.08;;;21.10;43.70;;;;;;5074105;28;20041;-59
2022/03/08 09:51:03;;;;;;;4.55;1.30;;;21.10;43.70;;;;;;5073854;28;20524;-58
2022/03/08 09:53:32;;;;;;;2.60;1.13;;;21.10;43.60;;;;;;5073106;28;20051;-59
2022/03/08 09:56:00;;;;;;;;;;;21.10;43.60;;;;;;5074488;28;20071;-59
2022/03/08 09:58:26;;;;;;;2.65;1.20;;;21.10;43.40;;;;;;5073666;28;19920;-60
2022/03/08 10:00:53;;;;;;;5.65;1.70;;;21.10;43.40;;;;;;5073098;28;20388;-59
2022/03/08 10:03:19;;;;;;;5.22;2.08;;;21.10;43.60;;;;;;5073239;28;20511;-59
2022/03/08 10:05:45;;;;;;;4.75;2.17;;;21.10;43.80;;;;;;5054355;28;20060;-59
2022/03/08 10:08:19;;;;;;;4.45;2.20;;;21.00;43.80;;;;;;5072559;28;20179;-59
2022/03/08 10:10:52;;;;;;;4.18;2.10;;;21.10;43.90;;;;;;5073569;28;20040;-60
2022/03/08 10:13:18;;;;;;;3.65;1.45;;;21.00;43.80;;;;;;5072535;28;20040;-59
2022/03/08 10:15:44;;;;;;;4.40;1.90;;;21.00;43.80;;;;;;5073522;28;20047;-58
2022/03/08 10:18:10;;;;;;;6.40;2.00;;;21.00;43.80;;;;;;5073185;28;20040;-60
2022/03/08 10:20:35;;;;;;;5.45;1.98;;;21.00;43.80;;;;;;5072522;28;20036;-59
2022/03/08 10:23:08;;;;;;;4.20;1.98;;;21.00;43.70;;;;;;5073295;28;20042;-60
2022/03/08 10:25:33;;;;;;;3.58;1.65;;;21.00;43.70;;;;;;5073256;28;20118;-60
2022/03/08 10:28:01;;;;;;;4.78;1.45;;;21.00;43.70;;;;;;5072657;28;20098;-60
2022/03/08 10:30:44;;;;;;;4.55;1.85;;;21.00;43.70;;;;;;5072827;28;20056;-59
2022/03/08 10:33:10;;;;;;;2.80;1.60;;;21.00;43.70;;;;;;5072865;28;20048;-59
2022/03/08 10:35:41;;;;;;;4.18;1.88;;;20.90;43.50;;;;;;5072317;28;20044;-59
2022/03/08 10:38:08;;;;;;;3.85;1.77;;;20.90;43.40;;;;;;5072736;28;20040;-60
2022/03/08 10:40:34;;;;;;;3.83;1.77;;;20.90;43.30;;;;;;5072988;28;20045;-59
2022/03/08 10:43:07;;;;;;;5.28;1.60;;;20.90;43.30;;;;;;5072123;28;20503;-59
2022/03/08 10:45:35;;;;;;;2.75;1.50;;;20.90;43.20;;;;;;5072860;28;20048;-59
2022/03/08 10:48:02;;;;;;;4.00;1.80;;;20.80;43.20;;;;;;5073137;28;20055;-59
2022/03/08 10:50:30;;;;;;;3.60;1.60;;;20.90;43.30;;;;;;5070514;28;20134;-59
2022/03/08 10:52:57;;;;;;;3.65;1.45;;;20.80;43.40;;;;;;5072915;28;20041;-59
2022/03/08 10:55:24;;;;;;;5.60;1.90;;;20.80;43.50;;;;;;5071667;28;20366;-59
2022/03/08 10:57:56;;;;;;;3.38;1.60;;;20.80;43.50;;;;;;5072560;28;20068;-59
2022/03/08 11:00:29;;;;;;;3.15;1.50;;;20.80;43.60;;;;;;5072820;28;20119;-59
2022/03/08 11:02:56;;;;;;;3.38;1.30;;;20.80;43.50;;;;;;5072058;28;20048;-59
2022/03/08 11:05:32;;;;;;;4.25;1.80;;;20.80;43.60;;;;;;5072203;28;20127;-59
2022/03/08 11:07:57;;;;;;;3.20;1.40;;;20.80;43.50;;;;;;5072730;28;20052;-59
2022/03/08 11:10:24;;;;;;;2.65;1.35;;;20.80;43.40;;;;;;5071432;28;20048;-59
2022/03/08 11:12:49;;;;;;;3.22;1.25;;;20.80;43.50;;;;;;5072424;28;20407;-59
2022/03/08 11:15:16;;;;;;;3.55;1.50;;;20.80;43.50;;;;;;5072462;28;20506;-58
2022/03/08 11:17:43;;;;;;;2.83;1.50;;;20.80;43.40;;;;;;5071824;28;20051;-59
2022/03/08 11:20:10;;;;;;;3.13;1.40;;;20.80;43.50;;;;;;5072243;28;20516;-59
2022/03/08 11:22:36;;;;;;;2.78;1.10;;;20.80;43.50;;;;;;5071954;28;20040;-58
2022/03/08 11:25:02;;;;;;;3.28;1.48;;;20.70;43.40;;;;;;5069151;28;20043;-60
2022/03/08 11:27:27;;;;;;;4.47;1.20;;;20.70;43.40;;;;;;5072337;28;20053;-60
2022/03/08 11:29:53;;;;;;;4.35;1.40;;;20.80;43.50;;;;;;5038141;28;20048;-60
2022/03/08 11:32:31;;;;;;;3.50;1.20;;;20.70;43.40;;;;;;5071873;28;20048;-60
2022/03/08 11:35:08;;;;;;;2.47;1.30;;;20.70;43.30;;;;;;5072468;28;20079;-59
2022/03/08 11:37:35;;;;;;;2.88;1.30;;;20.70;43.30;;;;;;5071486;28;20048;-60
2022/03/08 11:40:11;;;;;;;2.65;1.20;;;20.70;43.40;;;;;;5071384;28;20048;-60
2022/03/08 11:42:41;;;;;;;4.45;1.30;;;20.70;43.30;;;;;;5072233;28;20045;-60
2022/03/08 11:45:17;;;;;;;1.52;1.00;;;20.70;43.40;;;;;;5071374;28;20041;-60
2022/03/08 11:47:44;;;;;;;3.17;1.00;;;20.70;43.40;;;;;;5071241;28;20063;-60
2022/03/08 11:50:39;;;;;;;2.88;1.35;;;20.70;43.50;;;;;;5072062;28;20048;-60
2022/03/08 11:53:08;;;;;;;2.97;1.40;;;20.70;43.50;;;;;;5071580;28;20044;-60
2022/03/08 11:55:43;;;;;;;2.55;1.33;;;20.70;43.50;;;;;;5072044;28;20048;-60
2022/03/08 11:58:16;;;;;;;3.80;1.50;;;20.70;43.40;;;;;;5071534;28;20400;-60
2022/03/08 12:00:42;;;;;;;2.47;1.27;;;20.70;43.10;;;;;;5071626;28;20072;-59
2022/03/08 12:03:18;;;;;;;4.15;1.60;;;20.70;42.90;;;;;;5072053;28;20079;-59
2022/03/08 12:06:06;;;;;;;3.88;1.17;;;20.70;42.90;;;;;;5070282;28;20090;-59
2022/03/08 12:08:32;;;;;;;;;;;20.70;42.90;;;;;;5072320;28;20047;-60
2022/03/08 12:10:58;;;;;;;2.83;1.20;;;20.70;43.00;;;;;;5071671;28;20015;-60
2022/03/08 12:13:24;;;;;;;4.63;1.10;;;20.70;43.10;;;;;;5070819;28;20128;-59
2022/03/08 12:16:08;;;;;;;2.42;0.93;;;20.80;43.10;;;;;;5070997;28;20469;-58
2022/03/08 12:18:50;;;;;;;4.47;1.02;;;20.70;43.40;;;;;;5070835;28;20377;-59
2022/03/08 12:21:15;;;;;;;2.30;1.00;;;20.80;43.50;;;;;;5070517;28;20041;-59
2022/03/08 12:23:57;;;;;;;2.22;1.05;;;20.80;43.50;;;;;;5071634;28;20045;-58
2022/03/08 12:26:25;;;;;;;3.55;1.20;;;20.80;43.30;;;;;;5069603;28;20036;-57
2022/03/08 12:29:18;;;;;;;2.05;1.10;;;20.90;43.30;;;;;;5070535;28;20036;-57
2022/03/08 12:32:05;;;;;;;1.77;0.98;;;20.80;43.20;;;;;;5071730;28;20079;-57
2022/03/08 12:34:39;;;;;;;2.50;1.20;;;20.90;43.10;;;;;;5073846;28;20123;-57
2022/03/08 12:37:09;;;;;;;3.00;1.00;;;20.90;43.20;;;;;;5074802;28;20044;-57
2022/03/08 12:39:51;;;;;;;2.78;1.10;;;20.90;43.10;;;;;;5072186;28;20480;-58
2022/03/08 12:42:40;;;;;;;1.75;0.80;;;20.90;43.00;;;;;;5071342;28;20041;-58
2022/03/08 12:45:21;;;;;;;1.23;0.80;;;20.90;42.90;;;;;;5072958;28;20100;-57